sensor_id;sensor_type;location;lat;lon;timestamp;P1;durP1;ratioP1;P2;durP2;ratioP2
19291;SDS011;9779;51.756;7.450;2023-11-19T00:02:18;0.80;;;0.80;;
19291;SDS011;9779;51.756;7.450;2023-11-19T00:04:44;0.70;;;0.70;;
19291;SDS011;9779;51.756;7.450;2023-11-19T00:07:10;0.70;;;0.70;;
19291;SDS011;9779;51.756;7.450;2023-11-19T00:09:37;0.70;;;0.70;;
19291;SDS011;9779;51.756;7.450;2023-11-19T00:12:06;4.80;;;0.90;;
19291;SDS011;9779;51.756;7.450;2023-11-19T00:14:32;1.20;;;0.80;;
19291;SDS011;9779;51.756;7.450;2023-11-19T00:16:58;1.00;;;1.00;;
19291;SDS011;9779;51.756;7.450;2023-11-19T00:19:24;0.73;;;0.73;;
19291;SDS011;9779;51.756;7.450;2023-11-19T00:21:49;2.40;;;1.17;;
19291;SDS011;9779;51.756;7.450;2023-11-19T00:24:15;2.93;;;1.03;;
19291;SDS011;9779;51.756;7.450;2023-11-19T00:26:42;0.87;;;0.87;;
19291;SDS011;9779;51.756;7.450;2023-11-19T00:29:08;1.63;;;1.53;;
19291;SDS011;9779;51.756;7.450;2023-11-19T00:31:33;1.93;;;1.40;;
19291;SDS011;9779;51.756;7.450;2023-11-19T00:33:59;1.27;;;1.27;;
19291;SDS011;9779;51.756;7.450;2023-11-19T00:36:26;1.37;;;1.30;;
19291;SDS011;9779;51.756;7.450;2023-11-19T00:38:52;1.60;;;1.50;;
19291;SDS011;9779;51.756;7.450;2023-11-19T00:41:18;1.57;;;1.47;;
19291;SDS011;9779;51.756;7.450;2023-11-19T00:43:44;2.50;;;2.30;;
19291;SDS011;9779;51.756;7.450;2023-11-19T00:46:09;1.60;;;1.50;;
19291;SDS011;9779;51.756;7.450;2023-11-19T00:48:38;2.60;;;2.10;;
19291;SDS011;9779;51.756;7.450;2023-11-19T00:51:04;2.10;;;2.00;;
19291;SDS011;9779;51.756;7.450;2023-11-19T00:53:30;4.00;;;1.87;;
19291;SDS011;9779;51.756;7.450;2023-11-19T00:55:57;2.10;;;2.00;;
19291;SDS011;9779;51.756;7.450;2023-11-19T00:58:22;2.27;;;2.17;;
19291;SDS011;9779;51.756;7.450;2023-11-19T01:00:48;2.50;;;2.30;;
19291;SDS011;9779;51.756;7.450;2023-11-19T01:03:14;2.43;;;2.33;;
19291;SDS011;9779;51.756;7.450;2023-11-19T01:05:41;2.90;;;2.70;;
19291;SDS011;9779;51.756;7.450;2023-11-19T01:08:06;2.60;;;2.50;;
19291;SDS011;9779;51.756;7.450;2023-11-19T01:10:33;3.27;;;2.97;;
19291;SDS011;9779;51.756;7.450;2023-11-19T01:12:59;3.63;;;3.33;;
19291;SDS011;9779;51.756;7.450;2023-11-19T01:15:24;3.37;;;3.17;;
19291;SDS011;9779;51.756;7.450;2023-11-19T01:17:51;4.63;;;3.33;;
19291;SDS011;9779;51.756;7.450;2023-11-19T01:20:16;3.87;;;3.57;;
19291;SDS011;9779;51.756;7.450;2023-11-19T01:22:42;3.73;;;3.53;;
19291;SDS011;9779;51.756;7.450;2023-11-19T01:25:08;4.23;;;3.90;;
19291;SDS011;9779;51.756;7.450;2023-11-19T01:27:34;4.33;;;4.03;;
19291;SDS011;9779;51.756;7.450;2023-11-19T01:30:00;4.10;;;3.90;;
19291;SDS011;9779;51.756;7.450;2023-11-19T01:32:30;5.23;;;4.00;;
19291;SDS011;9779;51.756;7.450;2023-11-19T01:34:56;5.97;;;3.97;;
19291;SDS011;9779;51.756;7.450;2023-11-19T01:37:22;4.80;;;4.50;;
19291;SDS011;9779;51.756;7.450;2023-11-19T01:39:48;4.67;;;4.37;;
19291;SDS011;9779;51.756;7.450;2023-11-19T01:42:13;4.40;;;4.00;;
19291;SDS011;9779;51.756;7.450;2023-11-19T01:44:40;5.40;;;5.07;;
19291;SDS011;9779;51.756;7.450;2023-11-19T01:47:06;5.00;;;4.70;;
19291;SDS011;9779;51.756;7.450;2023-11-19T01:49:33;5.07;;;4.77;;
19291;SDS011;9779;51.756;7.450;2023-11-19T01:51:59;5.30;;;5.00;;
19291;SDS011;9779;51.756;7.450;2023-11-19T01:54:25;5.23;;;4.80;;
19291;SDS011;9779;51.756;7.450;2023-11-19T01:56:53;5.37;;;5.07;;
19291;SDS011;9779;51.756;7.450;2023-11-19T01:59:21;6.03;;;5.53;;
19291;SDS011;9779;51.756;7.450;2023-11-19T02:01:51;7.53;;;4.70;;
19291;SDS011;9779;51.756;7.450;2023-11-19T02:04:20;5.50;;;5.07;;
19291;SDS011;9779;51.756;7.450;2023-11-19T02:06:46;5.27;;;4.87;;
19291;SDS011;9779;51.756;7.450;2023-11-19T02:09:14;6.60;;;5.13;;
19291;SDS011;9779;51.756;7.450;2023-11-19T02:11:44;5.30;;;4.90;;
19291;SDS011;9779;51.756;7.450;2023-11-19T02:14:10;9.97;;;4.73;;
19291;SDS011;9779;51.756;7.450;2023-11-19T02:16:36;4.70;;;4.40;;
19291;SDS011;9779;51.756;7.450;2023-11-19T02:19:01;4.23;;;3.63;;
19291;SDS011;9779;51.756;7.450;2023-11-19T02:21:28;5.27;;;3.60;;
19291;SDS011;9779;51.756;7.450;2023-11-19T02:23:54;4.20;;;3.83;;
19291;SDS011;9779;51.756;7.450;2023-11-19T02:26:24;5.73;;;4.17;;
19291;SDS011;9779;51.756;7.450;2023-11-19T02:28:56;3.17;;;2.97;;
19291;SDS011;9779;51.756;7.450;2023-11-19T02:31:21;3.37;;;3.17;;
19291;SDS011;9779;51.756;7.450;2023-11-19T02:33:48;5.03;;;3.30;;
19291;SDS011;9779;51.756;7.450;2023-11-19T02:36:15;3.70;;;3.00;;
19291;SDS011;9779;51.756;7.450;2023-11-19T02:38:41;3.90;;;3.07;;
19291;SDS011;9779;51.756;7.450;2023-11-19T02:41:07;6.00;;;2.97;;
19291;SDS011;9779;51.756;7.450;2023-11-19T02:43:35;3.50;;;3.17;;
19291;SDS011;9779;51.756;7.450;2023-11-19T02:46:02;4.47;;;2.80;;
19291;SDS011;9779;51.756;7.450;2023-11-19T02:48:31;3.67;;;2.93;;
19291;SDS011;9779;51.756;7.450;2023-11-19T02:50:58;5.57;;;2.97;;
19291;SDS011;9779;51.756;7.450;2023-11-19T02:53:23;4.77;;;3.40;;
19291;SDS011;9779;51.756;7.450;2023-11-19T02:55:52;4.97;;;2.40;;
19291;SDS011;9779;51.756;7.450;2023-11-19T02:58:18;4.30;;;2.67;;
19291;SDS011;9779;51.756;7.450;2023-11-19T03:00:48;5.13;;;2.57;;
19291;SDS011;9779;51.756;7.450;2023-11-19T03:03:22;4.93;;;2.23;;
19291;SDS011;9779;51.756;7.450;2023-11-19T03:05:53;13.50;;;2.97;;
19291;SDS011;9779;51.756;7.450;2023-11-19T03:08:20;3.20;;;2.63;;
19291;SDS011;9779;51.756;7.450;2023-11-19T03:10:45;5.03;;;2.30;;
19291;SDS011;9779;51.756;7.450;2023-11-19T03:13:12;7.10;;;2.67;;
19291;SDS011;9779;51.756;7.450;2023-11-19T03:15:42;4.07;;;2.63;;
19291;SDS011;9779;51.756;7.450;2023-11-19T03:18:08;8.10;;;2.90;;
19291;SDS011;9779;51.756;7.450;2023-11-19T03:20:33;6.23;;;2.67;;
19291;SDS011;9779;51.756;7.450;2023-11-19T03:22:59;5.07;;;2.60;;
19291;SDS011;9779;51.756;7.450;2023-11-19T03:25:28;6.13;;;2.93;;
19291;SDS011;9779;51.756;7.450;2023-11-19T03:27:58;4.77;;;2.87;;
19291;SDS011;9779;51.756;7.450;2023-11-19T03:30:25;9.57;;;2.90;;
19291;SDS011;9779;51.756;7.450;2023-11-19T03:32:51;7.73;;;2.57;;
19291;SDS011;9779;51.756;7.450;2023-11-19T03:35:17;7.83;;;2.40;;
19291;SDS011;9779;51.756;7.450;2023-11-19T03:37:43;14.13;;;2.47;;
19291;SDS011;9779;51.756;7.450;2023-11-19T03:40:09;7.97;;;2.73;;
19291;SDS011;9779;51.756;7.450;2023-11-19T03:42:35;8.83;;;2.53;;
19291;SDS011;9779;51.756;7.450;2023-11-19T03:45:01;8.73;;;2.50;;
19291;SDS011;9779;51.756;7.450;2023-11-19T03:47:29;9.30;;;2.77;;
19291;SDS011;9779;51.756;7.450;2023-11-19T03:49:54;15.80;;;2.37;;
19291;SDS011;9779;51.756;7.450;2023-11-19T03:52:20;10.03;;;2.47;;
19291;SDS011;9779;51.756;7.450;2023-11-19T03:54:45;6.10;;;2.33;;
19291;SDS011;9779;51.756;7.450;2023-11-19T03:57:11;11.60;;;2.60;;
19291;SDS011;9779;51.756;7.450;2023-11-19T03:59:38;16.23;;;2.70;;
19291;SDS011;9779;51.756;7.450;2023-11-19T04:02:04;10.10;;;2.63;;
19291;SDS011;9779;51.756;7.450;2023-11-19T04:04:30;10.30;;;2.40;;
19291;SDS011;9779;51.756;7.450;2023-11-19T04:06:56;10.10;;;2.80;;
19291;SDS011;9779;51.756;7.450;2023-11-19T04:09:21;6.13;;;2.40;;
19291;SDS011;9779;51.756;7.450;2023-11-19T04:11:47;14.20;;;3.27;;
19291;SDS011;9779;51.756;7.450;2023-11-19T04:14:13;5.90;;;2.50;;
19291;SDS011;9779;51.756;7.450;2023-11-19T04:16:39;17.10;;;2.47;;
19291;SDS011;9779;51.756;7.450;2023-11-19T04:19:05;12.90;;;2.77;;
19291;SDS011;9779;51.756;7.450;2023-11-19T04:21:32;9.40;;;2.97;;
19291;SDS011;9779;51.756;7.450;2023-11-19T04:23:58;5.57;;;2.20;;
19291;SDS011;9779;51.756;7.450;2023-11-19T04:26:23;8.17;;;2.43;;
19291;SDS011;9779;51.756;7.450;2023-11-19T04:28:49;9.47;;;2.23;;
19291;SDS011;9779;51.756;7.450;2023-11-19T04:31:15;8.53;;;1.97;;
19291;SDS011;9779;51.756;7.450;2023-11-19T04:33:41;12.10;;;2.17;;
19291;SDS011;9779;51.756;7.450;2023-11-19T04:36:08;9.27;;;2.47;;
19291;SDS011;9779;51.756;7.450;2023-11-19T04:38:34;7.03;;;2.80;;
19291;SDS011;9779;51.756;7.450;2023-11-19T04:41:00;7.90;;;2.27;;
19291;SDS011;9779;51.756;7.450;2023-11-19T04:43:26;10.73;;;2.60;;
19291;SDS011;9779;51.756;7.450;2023-11-19T04:45:51;14.90;;;3.73;;
19291;SDS011;9779;51.756;7.450;2023-11-19T04:48:17;11.47;;;2.70;;
19291;SDS011;9779;51.756;7.450;2023-11-19T04:50:43;17.33;;;2.87;;
19291;SDS011;9779;51.756;7.450;2023-11-19T04:53:08;14.57;;;2.60;;
19291;SDS011;9779;51.756;7.450;2023-11-19T04:55:34;11.10;;;2.90;;
19291;SDS011;9779;51.756;7.450;2023-11-19T04:57:59;16.87;;;3.70;;
19291;SDS011;9779;51.756;7.450;2023-11-19T05:00:25;14.33;;;3.37;;
19291;SDS011;9779;51.756;7.450;2023-11-19T05:02:51;15.67;;;3.87;;
19291;SDS011;9779;51.756;7.450;2023-11-19T05:05:16;15.03;;;4.33;;
19291;SDS011;9779;51.756;7.450;2023-11-19T05:07:42;16.67;;;3.77;;
19291;SDS011;9779;51.756;7.450;2023-11-19T05:10:08;24.73;;;4.27;;
19291;SDS011;9779;51.756;7.450;2023-11-19T05:12:34;14.80;;;3.67;;
19291;SDS011;9779;51.756;7.450;2023-11-19T05:15:00;23.63;;;4.43;;
19291;SDS011;9779;51.756;7.450;2023-11-19T05:17:26;18.57;;;3.93;;
19291;SDS011;9779;51.756;7.450;2023-11-19T05:19:51;19.53;;;3.47;;
19291;SDS011;9779;51.756;7.450;2023-11-19T05:22:17;23.53;;;3.80;;
19291;SDS011;9779;51.756;7.450;2023-11-19T05:24:43;18.27;;;4.40;;
19291;SDS011;9779;51.756;7.450;2023-11-19T05:27:09;23.70;;;4.17;;
19291;SDS011;9779;51.756;7.450;2023-11-19T05:29:36;23.20;;;4.90;;
19291;SDS011;9779;51.756;7.450;2023-11-19T05:32:04;25.60;;;3.73;;
19291;SDS011;9779;51.756;7.450;2023-11-19T05:34:30;17.83;;;4.17;;
19291;SDS011;9779;51.756;7.450;2023-11-19T05:36:55;24.73;;;4.23;;
19291;SDS011;9779;51.756;7.450;2023-11-19T05:39:22;22.57;;;4.27;;
19291;SDS011;9779;51.756;7.450;2023-11-19T05:41:48;21.43;;;4.13;;
19291;SDS011;9779;51.756;7.450;2023-11-19T05:44:13;18.03;;;4.17;;
19291;SDS011;9779;51.756;7.450;2023-11-19T05:46:39;18.37;;;4.17;;
19291;SDS011;9779;51.756;7.450;2023-11-19T05:49:07;14.73;;;3.80;;
19291;SDS011;9779;51.756;7.450;2023-11-19T05:51:36;20.20;;;4.53;;
19291;SDS011;9779;51.756;7.450;2023-11-19T05:54:03;33.70;;;5.00;;
19291;SDS011;9779;51.756;7.450;2023-11-19T05:56:31;21.63;;;4.10;;
19291;SDS011;9779;51.756;7.450;2023-11-19T05:58:58;25.87;;;4.87;;
19291;SDS011;9779;51.756;7.450;2023-11-19T06:01:26;29.73;;;5.27;;
19291;SDS011;9779;51.756;7.450;2023-11-19T06:03:51;20.80;;;3.80;;
19291;SDS011;9779;51.756;7.450;2023-11-19T06:06:17;33.60;;;5.53;;
19291;SDS011;9779;51.756;7.450;2023-11-19T06:08:43;25.73;;;4.80;;
19291;SDS011;9779;51.756;7.450;2023-11-19T06:11:09;30.53;;;4.70;;
19291;SDS011;9779;51.756;7.450;2023-11-19T06:13:39;21.83;;;4.63;;
19291;SDS011;9779;51.756;7.450;2023-11-19T06:16:05;24.07;;;4.73;;
19291;SDS011;9779;51.756;7.450;2023-11-19T06:18:31;24.70;;;5.10;;
19291;SDS011;9779;51.756;7.450;2023-11-19T06:20:57;22.30;;;4.23;;
19291;SDS011;9779;51.756;7.450;2023-11-19T06:23:23;27.90;;;4.50;;
19291;SDS011;9779;51.756;7.450;2023-11-19T06:25:48;22.77;;;4.60;;
19291;SDS011;9779;51.756;7.450;2023-11-19T06:28:14;27.50;;;5.13;;
19291;SDS011;9779;51.756;7.450;2023-11-19T06:30:40;29.10;;;5.43;;
19291;SDS011;9779;51.756;7.450;2023-11-19T06:33:06;16.23;;;4.13;;
19291;SDS011;9779;51.756;7.450;2023-11-19T06:35:32;32.67;;;4.97;;
19291;SDS011;9779;51.756;7.450;2023-11-19T06:38:02;30.70;;;5.83;;
19291;SDS011;9779;51.756;7.450;2023-11-19T06:40:29;27.93;;;4.17;;
19291;SDS011;9779;51.756;7.450;2023-11-19T06:42:55;19.03;;;4.93;;
19291;SDS011;9779;51.756;7.450;2023-11-19T06:45:21;28.43;;;4.80;;
19291;SDS011;9779;51.756;7.450;2023-11-19T06:47:47;22.93;;;5.00;;
19291;SDS011;9779;51.756;7.450;2023-11-19T06:50:12;30.90;;;4.80;;
19291;SDS011;9779;51.756;7.450;2023-11-19T06:52:39;22.30;;;5.40;;
19291;SDS011;9779;51.756;7.450;2023-11-19T06:55:05;28.93;;;5.50;;
19291;SDS011;9779;51.756;7.450;2023-11-19T06:57:31;22.57;;;5.07;;
19291;SDS011;9779;51.756;7.450;2023-11-19T06:59:57;30.43;;;4.70;;
19291;SDS011;9779;51.756;7.450;2023-11-19T07:02:23;21.67;;;5.03;;
19291;SDS011;9779;51.756;7.450;2023-11-19T07:04:50;25.00;;;4.27;;
19291;SDS011;9779;51.756;7.450;2023-11-19T07:07:16;25.47;;;4.40;;
19291;SDS011;9779;51.756;7.450;2023-11-19T07:09:41;20.27;;;4.80;;
19291;SDS011;9779;51.756;7.450;2023-11-19T07:12:07;23.47;;;4.27;;
19291;SDS011;9779;51.756;7.450;2023-11-19T07:14:33;32.47;;;5.53;;
19291;SDS011;9779;51.756;7.450;2023-11-19T07:16:59;31.87;;;4.53;;
19291;SDS011;9779;51.756;7.450;2023-11-19T07:19:25;21.47;;;4.90;;
19291;SDS011;9779;51.756;7.450;2023-11-19T07:21:51;23.30;;;4.80;;
19291;SDS011;9779;51.756;7.450;2023-11-19T07:24:19;31.77;;;5.37;;
19291;SDS011;9779;51.756;7.450;2023-11-19T07:26:46;33.83;;;6.43;;
19291;SDS011;9779;51.756;7.450;2023-11-19T07:29:13;18.63;;;4.57;;
19291;SDS011;9779;51.756;7.450;2023-11-19T07:31:41;35.80;;;5.70;;
19291;SDS011;9779;51.756;7.450;2023-11-19T07:34:09;36.13;;;5.70;;
19291;SDS011;9779;51.756;7.450;2023-11-19T07:36:35;29.87;;;4.87;;
19291;SDS011;9779;51.756;7.450;2023-11-19T07:39:01;22.93;;;3.77;;
19291;SDS011;9779;51.756;7.450;2023-11-19T07:41:27;30.73;;;5.50;;
19291;SDS011;9779;51.756;7.450;2023-11-19T07:43:53;31.27;;;5.33;;
19291;SDS011;9779;51.756;7.450;2023-11-19T07:46:19;18.50;;;4.40;;
19291;SDS011;9779;51.756;7.450;2023-11-19T07:48:45;29.50;;;5.17;;
19291;SDS011;9779;51.756;7.450;2023-11-19T07:51:14;24.37;;;4.73;;
19291;SDS011;9779;51.756;7.450;2023-11-19T07:53:40;27.27;;;5.57;;
19291;SDS011;9779;51.756;7.450;2023-11-19T07:56:06;33.33;;;6.53;;
19291;SDS011;9779;51.756;7.450;2023-11-19T07:58:32;23.97;;;5.17;;
19291;SDS011;9779;51.756;7.450;2023-11-19T08:00:58;26.10;;;5.00;;
19291;SDS011;9779;51.756;7.450;2023-11-19T08:03:24;33.93;;;5.63;;
19291;SDS011;9779;51.756;7.450;2023-11-19T08:05:49;27.70;;;4.90;;
19291;SDS011;9779;51.756;7.450;2023-11-19T08:08:15;32.80;;;5.57;;
19291;SDS011;9779;51.756;7.450;2023-11-19T08:10:41;37.33;;;5.77;;
19291;SDS011;9779;51.756;7.450;2023-11-19T08:13:08;28.97;;;6.17;;
19291;SDS011;9779;51.756;7.450;2023-11-19T08:15:33;28.13;;;5.40;;
19291;SDS011;9779;51.756;7.450;2023-11-19T08:17:59;22.93;;;5.23;;
19291;SDS011;9779;51.756;7.450;2023-11-19T08:20:25;21.03;;;5.03;;
19291;SDS011;9779;51.756;7.450;2023-11-19T08:22:50;25.27;;;5.07;;
19291;SDS011;9779;51.756;7.450;2023-11-19T08:25:16;43.57;;;6.60;;
19291;SDS011;9779;51.756;7.450;2023-11-19T08:27:42;36.47;;;5.90;;
19291;SDS011;9779;51.756;7.450;2023-11-19T08:30:08;29.80;;;5.40;;
19291;SDS011;9779;51.756;7.450;2023-11-19T08:32:34;29.20;;;5.23;;
19291;SDS011;9779;51.756;7.450;2023-11-19T08:35:00;29.60;;;6.37;;
19291;SDS011;9779;51.756;7.450;2023-11-19T08:37:26;36.97;;;5.33;;
19291;SDS011;9779;51.756;7.450;2023-11-19T08:39:52;36.80;;;5.50;;
19291;SDS011;9779;51.756;7.450;2023-11-19T08:42:18;32.50;;;5.20;;
19291;SDS011;9779;51.756;7.450;2023-11-19T08:44:44;22.23;;;4.87;;
19291;SDS011;9779;51.756;7.450;2023-11-19T08:47:15;20.00;;;4.73;;
19291;SDS011;9779;51.756;7.450;2023-11-19T08:49:42;28.83;;;4.63;;
19291;SDS011;9779;51.756;7.450;2023-11-19T08:52:08;35.30;;;5.33;;
19291;SDS011;9779;51.756;7.450;2023-11-19T08:54:35;36.07;;;5.90;;
19291;SDS011;9779;51.756;7.450;2023-11-19T08:57:01;27.03;;;5.87;;
19291;SDS011;9779;51.756;7.450;2023-11-19T08:59:28;34.87;;;6.00;;
19291;SDS011;9779;51.756;7.450;2023-11-19T09:01:54;32.37;;;4.90;;
19291;SDS011;9779;51.756;7.450;2023-11-19T09:04:19;38.80;;;5.20;;
19291;SDS011;9779;51.756;7.450;2023-11-19T09:06:47;29.80;;;5.57;;
19291;SDS011;9779;51.756;7.450;2023-11-19T09:09:13;33.27;;;6.20;;
19291;SDS011;9779;51.756;7.450;2023-11-19T09:11:39;37.90;;;5.30;;
19291;SDS011;9779;51.756;7.450;2023-11-19T09:14:04;29.53;;;5.60;;
19291;SDS011;9779;51.756;7.450;2023-11-19T09:16:30;35.87;;;5.63;;
19291;SDS011;9779;51.756;7.450;2023-11-19T09:18:56;31.83;;;4.90;;
19291;SDS011;9779;51.756;7.450;2023-11-19T09:21:23;26.23;;;5.23;;
19291;SDS011;9779;51.756;7.450;2023-11-19T09:23:48;33.37;;;5.27;;
19291;SDS011;9779;51.756;7.450;2023-11-19T09:26:14;20.70;;;4.97;;
19291;SDS011;9779;51.756;7.450;2023-11-19T09:28:40;37.40;;;5.90;;
19291;SDS011;9779;51.756;7.450;2023-11-19T09:31:15;32.33;;;5.40;;
19291;SDS011;9779;51.756;7.450;2023-11-19T09:33:41;30.47;;;5.70;;
19291;SDS011;9779;51.756;7.450;2023-11-19T09:36:07;21.77;;;6.17;;
19291;SDS011;9779;51.756;7.450;2023-11-19T09:38:33;39.30;;;5.27;;
19291;SDS011;9779;51.756;7.450;2023-11-19T09:41:03;28.50;;;5.47;;
19291;SDS011;9779;51.756;7.450;2023-11-19T09:43:33;34.20;;;5.87;;
19291;SDS011;9779;51.756;7.450;2023-11-19T09:45:59;32.83;;;5.00;;
19291;SDS011;9779;51.756;7.450;2023-11-19T09:48:32;32.03;;;5.97;;
19291;SDS011;9779;51.756;7.450;2023-11-19T09:50:58;32.27;;;5.27;;
19291;SDS011;9779;51.756;7.450;2023-11-19T09:53:25;36.60;;;6.13;;
19291;SDS011;9779;51.756;7.450;2023-11-19T09:55:50;17.63;;;4.70;;
19291;SDS011;9779;51.756;7.450;2023-11-19T09:58:17;29.83;;;5.63;;
19291;SDS011;9779;51.756;7.450;2023-11-19T10:00:43;29.33;;;5.00;;
19291;SDS011;9779;51.756;7.450;2023-11-19T10:03:09;40.57;;;5.63;;
19291;SDS011;9779;51.756;7.450;2023-11-19T10:05:37;30.40;;;5.57;;
19291;SDS011;9779;51.756;7.450;2023-11-19T10:08:04;40.57;;;6.50;;
19291;SDS011;9779;51.756;7.450;2023-11-19T10:10:30;34.87;;;6.00;;
19291;SDS011;9779;51.756;7.450;2023-11-19T10:12:55;30.63;;;5.03;;
19291;SDS011;9779;51.756;7.450;2023-11-19T10:15:22;29.57;;;5.47;;
19291;SDS011;9779;51.756;7.450;2023-11-19T10:18:01;38.83;;;5.83;;
19291;SDS011;9779;51.756;7.450;2023-11-19T10:20:26;26.60;;;5.13;;
19291;SDS011;9779;51.756;7.450;2023-11-19T10:22:55;28.47;;;4.83;;
19291;SDS011;9779;51.756;7.450;2023-11-19T10:27:48;30.73;;;5.77;;
19291;SDS011;9779;51.756;7.450;2023-11-19T10:30:17;31.70;;;5.60;;
19291;SDS011;9779;51.756;7.450;2023-11-19T10:32:54;26.23;;;4.50;;
19291;SDS011;9779;51.756;7.450;2023-11-19T10:35:27;35.30;;;5.40;;
19291;SDS011;9779;51.756;7.450;2023-11-19T10:37:53;24.80;;;4.43;;
19291;SDS011;9779;51.756;7.450;2023-11-19T10:40:18;18.13;;;4.77;;
19291;SDS011;9779;51.756;7.450;2023-11-19T10:42:45;24.23;;;5.27;;
19291;SDS011;9779;51.756;7.450;2023-11-19T10:45:31;37.87;;;5.93;;
19291;SDS011;9779;51.756;7.450;2023-11-19T10:47:57;20.13;;;4.93;;
19291;SDS011;9779;51.756;7.450;2023-11-19T10:50:23;24.03;;;4.40;;
19291;SDS011;9779;51.756;7.450;2023-11-19T10:52:50;42.33;;;5.50;;
19291;SDS011;9779;51.756;7.450;2023-11-19T10:55:22;25.17;;;5.57;;
19291;SDS011;9779;51.756;7.450;2023-11-19T10:57:52;30.93;;;4.97;;
19291;SDS011;9779;51.756;7.450;2023-11-19T11:00:23;25.13;;;4.73;;
19291;SDS011;9779;51.756;7.450;2023-11-19T11:02:50;25.03;;;5.43;;
19291;SDS011;9779;51.756;7.450;2023-11-19T11:05:22;26.37;;;5.10;;
19291;SDS011;9779;51.756;7.450;2023-11-19T11:07:48;30.57;;;5.73;;
19291;SDS011;9779;51.756;7.450;2023-11-19T11:10:17;27.43;;;5.73;;
19291;SDS011;9779;51.756;7.450;2023-11-19T11:12:47;27.23;;;6.13;;
19291;SDS011;9779;51.756;7.450;2023-11-19T11:15:15;25.63;;;5.30;;
19291;SDS011;9779;51.756;7.450;2023-11-19T11:17:43;34.90;;;5.17;;
19291;SDS011;9779;51.756;7.450;2023-11-19T11:20:11;27.30;;;5.63;;
19291;SDS011;9779;51.756;7.450;2023-11-19T11:22:50;27.17;;;6.07;;
19291;SDS011;9779;51.756;7.450;2023-11-19T11:25:40;30.73;;;5.70;;
19291;SDS011;9779;51.756;7.450;2023-11-19T11:28:41;24.73;;;5.23;;
19291;SDS011;9779;51.756;7.450;2023-11-19T11:36:25;24.30;;;6.17;;
19291;SDS011;9779;51.756;7.450;2023-11-19T11:38:51;32.73;;;5.20;;
19291;SDS011;9779;51.756;7.450;2023-11-19T11:43:48;37.13;;;5.83;;
19291;SDS011;9779;51.756;7.450;2023-11-19T11:49:02;29.03;;;5.30;;
19291;SDS011;9779;51.756;7.450;2023-11-19T11:54:09;28.13;;;4.80;;
19291;SDS011;9779;51.756;7.450;2023-11-19T11:56:38;37.17;;;6.63;;
19291;SDS011;9779;51.756;7.450;2023-11-19T11:59:19;28.20;;;4.90;;
19291;SDS011;9779;51.756;7.450;2023-11-19T12:01:59;22.37;;;4.30;;
19291;SDS011;9779;51.756;7.450;2023-11-19T12:04:26;28.93;;;5.90;;
19291;SDS011;9779;51.756;7.450;2023-11-19T12:07:05;31.57;;;5.30;;
19291;SDS011;9779;51.756;7.450;2023-11-19T12:09:42;32.23;;;4.70;;
19291;SDS011;9779;51.756;7.450;2023-11-19T12:12:22;32.57;;;4.80;;
19291;SDS011;9779;51.756;7.450;2023-11-19T12:17:46;30.43;;;6.00;;
19291;SDS011;9779;51.756;7.450;2023-11-19T12:20:16;31.70;;;4.87;;
19291;SDS011;9779;51.756;7.450;2023-11-19T12:22:52;22.97;;;4.43;;
19291;SDS011;9779;51.756;7.450;2023-11-19T12:25:18;33.27;;;5.50;;
19291;SDS011;9779;51.756;7.450;2023-11-19T12:27:48;21.37;;;5.17;;
19291;SDS011;9779;51.756;7.450;2023-11-19T12:32:50;32.23;;;5.90;;
19291;SDS011;9779;51.756;7.450;2023-11-19T12:35:18;25.40;;;4.83;;
19291;SDS011;9779;51.756;7.450;2023-11-19T12:40:12;25.93;;;4.60;;
19291;SDS011;9779;51.756;7.450;2023-11-19T12:42:47;26.73;;;6.50;;
19291;SDS011;9779;51.756;7.450;2023-11-19T12:45:14;18.43;;;4.37;;
19291;SDS011;9779;51.756;7.450;2023-11-19T12:47:41;29.23;;;4.87;;
19291;SDS011;9779;51.756;7.450;2023-11-19T12:50:13;24.70;;;4.60;;
19291;SDS011;9779;51.756;7.450;2023-11-19T12:52:39;26.10;;;4.47;;
19291;SDS011;9779;51.756;7.450;2023-11-19T12:55:05;20.20;;;5.07;;
19291;SDS011;9779;51.756;7.450;2023-11-19T12:57:53;20.00;;;3.90;;
19291;SDS011;9779;51.756;7.450;2023-11-19T13:00:20;26.70;;;4.93;;
19291;SDS011;9779;51.756;7.450;2023-11-19T13:02:50;22.77;;;4.17;;
19291;SDS011;9779;51.756;7.450;2023-11-19T13:05:24;34.90;;;4.23;;
19291;SDS011;9779;51.756;7.450;2023-11-19T13:07:51;29.40;;;4.77;;
19291;SDS011;9779;51.756;7.450;2023-11-19T13:10:34;17.37;;;4.17;;
19291;SDS011;9779;51.756;7.450;2023-11-19T13:13:18;19.90;;;4.33;;
19291;SDS011;9779;51.756;7.450;2023-11-19T13:15:44;19.23;;;4.33;;
19291;SDS011;9779;51.756;7.450;2023-11-19T13:18:11;23.53;;;4.30;;
19291;SDS011;9779;51.756;7.450;2023-11-19T13:20:37;19.47;;;4.47;;
19291;SDS011;9779;51.756;7.450;2023-11-19T13:23:05;23.03;;;3.90;;
19291;SDS011;9779;51.756;7.450;2023-11-19T13:25:35;23.63;;;4.93;;
19291;SDS011;9779;51.756;7.450;2023-11-19T13:28:01;12.20;;;4.43;;
19291;SDS011;9779;51.756;7.450;2023-11-19T13:30:27;13.60;;;3.37;;
19291;SDS011;9779;51.756;7.450;2023-11-19T13:32:54;14.70;;;3.60;;
19291;SDS011;9779;51.756;7.450;2023-11-19T13:35:20;14.50;;;3.90;;
19291;SDS011;9779;51.756;7.450;2023-11-19T13:37:46;16.40;;;3.57;;
19291;SDS011;9779;51.756;7.450;2023-11-19T13:40:12;13.23;;;3.43;;
19291;SDS011;9779;51.756;7.450;2023-11-19T13:42:39;20.23;;;3.87;;
19291;SDS011;9779;51.756;7.450;2023-11-19T13:45:10;13.93;;;3.53;;
19291;SDS011;9779;51.756;7.450;2023-11-19T13:47:41;13.77;;;3.03;;
19291;SDS011;9779;51.756;7.450;2023-11-19T13:50:11;12.80;;;3.70;;
19291;SDS011;9779;51.756;7.450;2023-11-19T13:52:38;12.13;;;3.50;;
19291;SDS011;9779;51.756;7.450;2023-11-19T13:55:09;15.77;;;3.80;;
19291;SDS011;9779;51.756;7.450;2023-11-19T13:57:35;18.57;;;3.73;;
19291;SDS011;9779;51.756;7.450;2023-11-19T14:00:11;13.97;;;3.17;;
19291;SDS011;9779;51.756;7.450;2023-11-19T14:02:44;17.70;;;3.33;;
19291;SDS011;9779;51.756;7.450;2023-11-19T14:05:12;17.70;;;3.70;;
19291;SDS011;9779;51.756;7.450;2023-11-19T14:07:38;12.00;;;3.63;;
19291;SDS011;9779;51.756;7.450;2023-11-19T14:10:04;21.33;;;3.50;;
19291;SDS011;9779;51.756;7.450;2023-11-19T14:12:31;21.60;;;3.87;;
19291;SDS011;9779;51.756;7.450;2023-11-19T14:14:57;23.70;;;4.27;;
19291;SDS011;9779;51.756;7.450;2023-11-19T14:17:23;16.63;;;3.50;;
19291;SDS011;9779;51.756;7.450;2023-11-19T14:19:50;17.50;;;4.03;;
19291;SDS011;9779;51.756;7.450;2023-11-19T14:22:15;16.57;;;4.20;;
19291;SDS011;9779;51.756;7.450;2023-11-19T14:24:41;15.13;;;3.50;;
19291;SDS011;9779;51.756;7.450;2023-11-19T14:27:07;25.17;;;3.77;;
19291;SDS011;9779;51.756;7.450;2023-11-19T14:29:36;15.40;;;3.03;;
19291;SDS011;9779;51.756;7.450;2023-11-19T14:32:02;19.43;;;3.57;;
19291;SDS011;9779;51.756;7.450;2023-11-19T14:34:31;9.87;;;3.43;;
19291;SDS011;9779;51.756;7.450;2023-11-19T14:36:57;15.73;;;3.57;;
19291;SDS011;9779;51.756;7.450;2023-11-19T14:39:23;25.60;;;4.00;;
19291;SDS011;9779;51.756;7.450;2023-11-19T14:41:49;20.33;;;4.77;;
19291;SDS011;9779;51.756;7.450;2023-11-19T14:44:15;16.73;;;3.47;;
19291;SDS011;9779;51.756;7.450;2023-11-19T14:46:41;19.13;;;3.73;;
19291;SDS011;9779;51.756;7.450;2023-11-19T14:49:07;13.33;;;3.97;;
19291;SDS011;9779;51.756;7.450;2023-11-19T14:51:35;26.63;;;4.17;;
19291;SDS011;9779;51.756;7.450;2023-11-19T14:54:05;17.03;;;4.57;;
19291;SDS011;9779;51.756;7.450;2023-11-19T14:56:30;19.70;;;4.07;;
19291;SDS011;9779;51.756;7.450;2023-11-19T14:58:56;18.33;;;3.87;;
19291;SDS011;9779;51.756;7.450;2023-11-19T15:01:23;14.17;;;3.57;;
19291;SDS011;9779;51.756;7.450;2023-11-19T15:03:49;9.37;;;3.87;;
19291;SDS011;9779;51.756;7.450;2023-11-19T15:06:15;22.40;;;4.00;;
19291;SDS011;9779;51.756;7.450;2023-11-19T15:08:41;18.47;;;3.63;;
19291;SDS011;9779;51.756;7.450;2023-11-19T15:11:07;14.93;;;3.63;;
19291;SDS011;9779;51.756;7.450;2023-11-19T15:13:34;11.00;;;3.00;;
19291;SDS011;9779;51.756;7.450;2023-11-19T15:16:02;18.17;;;3.20;;